sensor_id;sensor_type;location;lat;lon;timestamp;pressure;altitude;pressure_sealevel;temperature;humidity
44255;BME280;29933;47.226;15.734;2022-10-23T00:01:37;96784.50;;;7.82;100.00
44255;BME280;29933;47.226;15.734;2022-10-23T00:04:14;96785.03;;;7.87;100.00
44255;BME280;29933;47.226;15.734;2022-10-23T00:06:42;96783.53;;;7.90;100.00
44255;BME280;29933;47.226;15.734;2022-10-23T00:09:11;96775.47;;;7.93;100.00
44255;BME280;29933;47.226;15.734;2022-10-23T00:11:38;96782.44;;;7.94;100.00
44255;BME280;29933;47.226;15.734;2022-10-23T00:14:07;96776.69;;;7.96;100.00
44255;BME280;29933;47.226;15.734;2022-10-23T00:16:33;96765.06;;;7.95;100.00
44255;BME280;29933;47.226;15.734;2022-10-23T00:18:59;96767.38;;;7.93;100.00
44255;BME280;29933;47.226;15.734;2022-10-23T00:21:26;96768.94;;;7.94;100.00
44255;BME280;29933;47.226;15.734;2022-10-23T00:23:52;96775.94;;;7.99;100.00
44255;BME280;29933;47.226;15.734;2022-10-23T00:26:18;96771.69;;;7.98;100.00
44255;BME280;29933;47.226;15.734;2022-10-23T00:28:49;96772.09;;;8.00;100.00
44255;BME280;29933;47.226;15.734;2022-10-23T00:31:17;96782.94;;;8.00;100.00
44255;BME280;29933;47.226;15.734;2022-10-23T00:33:44;96782.94;;;8.00;100.00
44255;BME280;29933;47.226;15.734;2022-10-23T00:36:13;96779.09;;;8.01;100.00
44255;BME280;29933;47.226;15.734;2022-10-23T00:38:39;96787.94;;;7.98;100.00
44255;BME280;29933;47.226;15.734;2022-10-23T00:41:08;96789.75;;;7.94;100.00
44255;BME280;29933;47.226;15.734;2022-10-23T00:44:07;96787.44;;;7.92;100.00
44255;BME280;29933;47.226;15.734;2022-10-23T00:46:35;96792.06;;;7.92;100.00
44255;BME280;29933;47.226;15.734;2022-10-23T00:49:03;96795.09;;;7.90;100.00
44255;BME280;29933;47.226;15.734;2022-10-23T00:51:55;96792.00;;;7.88;100.00
44255;BME280;29933;47.226;15.734;2022-10-23T00:54:24;96794.94;;;7.80;100.00
44255;BME280;29933;47.226;15.734;2022-10-23T00:56:58;96794.94;;;7.80;100.00
44255;BME280;29933;47.226;15.734;2022-10-23T00:59:25;96798.84;;;7.82;100.00
44255;BME280;29933;47.226;15.734;2022-10-23T01:01:51;96799.69;;;7.86;100.00
44255;BME280;29933;47.226;15.734;2022-10-23T01:04:17;96808.44;;;7.80;100.00
44255;BME280;29933;47.226;15.734;2022-10-23T01:07:10;96804.09;;;7.75;100.00
44255;BME280;29933;47.226;15.734;2022-10-23T01:09:54;96800.63;;;7.74;100.00
44255;BME280;29933;47.226;15.734;2022-10-23T01:12:40;96795.63;;;7.76;100.00
44255;BME280;29933;47.226;15.734;2022-10-23T01:18:56;96796.91;;;7.83;100.00
44255;BME280;29933;47.226;15.734;2022-10-23T01:24:33;96790.34;;;7.84;100.00
44255;BME280;29933;47.226;15.734;2022-10-23T01:27:35;96782.63;;;7.82;100.00
44255;BME280;29933;47.226;15.734;2022-10-23T01:30:14;96789.09;;;7.77;100.00
44255;BME280;29933;47.226;15.734;2022-10-23T01:35:24;96789.09;;;7.77;100.00
44255;BME280;29933;47.226;15.734;2022-10-23T01:38:08;96787.94;;;7.78;100.00
44255;BME280;29933;47.226;15.734;2022-10-23T01:40:49;96792.22;;;7.80;100.00
44255;BME280;29933;47.226;15.734;2022-10-23T01:43:25;96790.22;;;7.76;100.00
44255;BME280;29933;47.226;15.734;2022-10-23T01:46:04;96796.47;;;7.81;100.00
44255;BME280;29933;47.226;15.734;2022-10-23T01:48:33;96795.34;;;7.82;100.00
44255;BME280;29933;47.226;15.734;2022-10-23T01:51:04;96783.19;;;7.72;100.00
44255;BME280;29933;47.226;15.734;2022-10-23T01:53:36;96780.97;;;7.77;100.00
44255;BME280;29933;47.226;15.734;2022-10-23T01:56:12;96779.09;;;7.82;100.00
44255;BME280;29933;47.226;15.734;2022-10-23T01:58:43;96775.41;;;7.90;100.00
44255;BME280;29933;47.226;15.734;2022-10-23T02:01:11;96773.38;;;7.83;100.00
44255;BME280;29933;47.226;15.734;2022-10-23T02:03:39;96776.41;;;7.82;100.00
44255;BME280;29933;47.226;15.734;2022-10-23T02:06:07;96775.63;;;7.81;100.00
44255;BME280;29933;47.226;15.734;2022-10-23T02:08:33;96781.41;;;7.80;100.00
44255;BME280;29933;47.226;15.734;2022-10-23T02:11:19;96774.84;;;7.81;100.00
44255;BME280;29933;47.226;15.734;2022-10-23T02:13:58;96771.72;;;7.78;100.00
44255;BME280;29933;47.226;15.734;2022-10-23T02:16:52;96769.03;;;7.78;100.00
44255;BME280;29933;47.226;15.734;2022-10-23T02:19:43;96764.31;;;7.75;100.00
44255;BME280;29933;47.226;15.734;2022-10-23T02:22:25;96775.56;;;7.77;100.00
44255;BME280;29933;47.226;15.734;2022-10-23T02:25:10;96771.72;;;7.78;100.00
44255;BME280;29933;47.226;15.734;2022-10-23T02:27:53;96761.75;;;7.83;100.00
44255;BME280;29933;47.226;15.734;2022-10-23T02:30:21;96755.56;;;7.82;100.00
44255;BME280;29933;47.226;15.734;2022-10-23T02:32:51;96756.34;;;7.83;100.00
44255;BME280;29933;47.226;15.734;2022-10-23T02:35:21;96758.69;;;7.84;100.00
44255;BME280;29933;47.226;15.734;2022-10-23T02:37:52;96755.63;;;7.86;100.00
44255;BME280;29933;47.226;15.734;2022-10-23T02:40:18;96751.66;;;7.80;100.00
44255;BME280;29933;47.226;15.734;2022-10-23T02:43:02;96756.28;;;7.79;100.00
44255;BME280;29933;47.226;15.734;2022-10-23T02:46:20;96751.53;;;7.72;100.00
44255;BME280;29933;47.226;15.734;2022-10-23T02:49:14;96758.81;;;7.68;100.00
44255;BME280;29933;47.226;15.734;2022-10-23T02:52:01;96760.34;;;7.69;100.00
44255;BME280;29933;47.226;15.734;2022-10-23T02:55:04;96762.63;;;7.67;100.00
44255;BME280;29933;47.226;15.734;2022-10-23T02:57:55;96757.94;;;7.64;100.00
44255;BME280;29933;47.226;15.734;2022-10-23T03:00:27;96751.69;;;7.60;100.00
44255;BME280;29933;47.226;15.734;2022-10-23T03:05:49;96762.06;;;7.58;100.00
44255;BME280;29933;47.226;15.734;2022-10-23T03:08:15;96765.91;;;7.57;100.00
44255;BME280;29933;47.226;15.734;2022-10-23T03:10:42;96771.31;;;7.57;100.00
44255;BME280;29933;47.226;15.734;2022-10-23T03:13:09;96765.91;;;7.57;100.00
44255;BME280;29933;47.226;15.734;2022-10-23T03:15:35;96767.41;;;7.54;100.00
44255;BME280;29933;47.226;15.734;2022-10-23T03:18:01;96769.31;;;7.54;100.00
44255;BME280;29933;47.226;15.734;2022-10-23T03:20:27;96770.09;;;7.54;100.00
44255;BME280;29933;47.226;15.734;2022-10-23T03:22:53;96761.66;;;7.56;100.00
44255;BME280;29933;47.226;15.734;2022-10-23T03:25:19;96767.47;;;7.58;100.00
44255;BME280;29933;47.226;15.734;2022-10-23T03:27:45;96767.13;;;7.59;100.00
44255;BME280;29933;47.226;15.734;2022-10-23T03:30:11;96768.59;;;7.57;100.00
44255;BME280;29933;47.226;15.734;2022-10-23T03:32:37;96767.47;;;7.58;100.00
44255;BME280;29933;47.226;15.734;2022-10-23T03:35:03;96763.19;;;7.57;100.00
44255;BME280;29933;47.226;15.734;2022-10-23T03:37:29;96768.19;;;7.55;100.00
44255;BME280;29933;47.226;15.734;2022-10-23T03:39:55;96769.69;;;7.52;100.00
44255;BME280;29933;47.226;15.734;2022-10-23T03:42:21;96765.06;;;7.53;100.00
44255;BME280;29933;47.226;15.734;2022-10-23T03:44:47;96763.50;;;7.52;100.00
44255;BME280;29933;47.226;15.734;2022-10-23T03:47:14;96764.97;;;7.49;100.00
44255;BME280;29933;47.226;15.734;2022-10-23T03:49:40;96762.28;;;7.49;100.00
44255;BME280;29933;47.226;15.734;2022-10-23T03:52:06;96766.06;;;7.44;100.00
44255;BME280;29933;47.226;15.734;2022-10-23T03:54:32;96766.00;;;7.41;100.00
44255;BME280;29933;47.226;15.734;2022-10-23T03:56:59;96756.69;;;7.38;100.00
44255;BME280;29933;47.226;15.734;2022-10-23T03:59:26;96750.13;;;7.39;100.00
44255;BME280;29933;47.226;15.734;2022-10-23T04:01:53;96759.03;;;7.40;100.00
44255;BME280;29933;47.226;15.734;2022-10-23T04:04:19;96756.31;;;7.40;100.00
44255;BME280;29933;47.226;15.734;2022-10-23T04:06:45;96756.25;;;7.36;100.00
44255;BME280;29933;47.226;15.734;2022-10-23T04:09:11;96752.28;;;7.30;100.00
44255;BME280;29933;47.226;15.734;2022-10-23T04:11:37;96754.47;;;7.24;100.00
44255;BME280;29933;47.226;15.734;2022-10-23T04:14:03;96748.22;;;7.20;100.00
44255;BME280;29933;47.226;15.734;2022-10-23T04:16:28;96753.97;;;7.19;100.00
44255;BME280;29933;47.226;15.734;2022-10-23T04:18:54;96760.22;;;7.23;100.00
44255;BME280;29933;47.226;15.734;2022-10-23T04:21:20;96751.75;;;7.24;100.00
44255;BME280;29933;47.226;15.734;2022-10-23T04:23:46;96754.53;;;7.28;100.00
44255;BME280;29933;47.226;15.734;2022-10-23T04:26:12;96749.13;;;7.28;100.00
44255;BME280;29933;47.226;15.734;2022-10-23T04:28:38;96743.72;;;7.28;100.00
44255;BME280;29933;47.226;15.734;2022-10-23T04:31:04;96753.41;;;7.29;100.00
44255;BME280;29933;47.226;15.734;2022-10-23T04:33:30;96752.19;;;7.26;100.00
44255;BME280;29933;47.226;15.734;2022-10-23T04:35:56;96743.66;;;7.24;100.00
44255;BME280;29933;47.226;15.734;2022-10-23T04:38:22;96735.91;;;7.23;100.00
44255;BME280;29933;47.226;15.734;2022-10-23T04:40:48;96732.00;;;7.20;100.00
44255;BME280;29933;47.226;15.734;2022-10-23T04:43:13;96745.09;;;7.18;100.00
44255;BME280;29933;47.226;15.734;2022-10-23T04:45:39;96734.28;;;7.18;100.00
44255;BME280;29933;47.226;15.734;2022-10-23T04:48:05;96731.22;;;7.20;100.00
44255;BME280;29933;47.226;15.734;2022-10-23T04:50:31;96737.31;;;7.17;100.00
44255;BME280;29933;47.226;15.734;2022-10-23T04:52:57;96738.41;;;7.12;100.00
44255;BME280;29933;47.226;15.734;2022-10-23T04:55:23;96728.66;;;7.07;100.00
44255;BME280;29933;47.226;15.734;2022-10-23T04:57:52;96741.72;;;7.05;100.00
44255;BME280;29933;47.226;15.734;2022-10-23T05:00:18;96735.91;;;7.03;100.00
44255;BME280;29933;47.226;15.734;2022-10-23T05:02:45;96730.78;;;6.98;100.00
44255;BME280;29933;47.226;15.734;2022-10-23T05:05:10;96731.56;;;6.99;100.00
44255;BME280;29933;47.226;15.734;2022-10-23T05:07:37;96727.00;;;7.03;100.00
44255;BME280;29933;47.226;15.734;2022-10-23T05:10:04;96712.38;;;7.04;100.00
44255;BME280;29933;47.226;15.734;2022-10-23T05:12:31;96713.88;;;7.01;100.00
44255;BME280;29933;47.226;15.734;2022-10-23T05:14:57;96714.56;;;6.98;100.00
44255;BME280;29933;47.226;15.734;2022-10-23T05:17:28;96714.56;;;6.98;100.00
44255;BME280;29933;47.226;15.734;2022-10-23T05:19:59;96713.03;;;6.97;100.00
44255;BME280;29933;47.226;15.734;2022-10-23T05:22:31;96707.56;;;6.93;100.00
44255;BME280;29933;47.226;15.734;2022-10-23T05:24:57;96711.47;;;6.96;100.00
44255;BME280;29933;47.226;15.734;2022-10-23T05:27:26;96700.66;;;6.96;100.00
44255;BME280;29933;47.226;15.734;2022-10-23T05:29:52;96704.84;;;6.93;100.00
44255;BME280;29933;47.226;15.734;2022-10-23T05:32:18;96716.41;;;6.94;100.00
44255;BME280;29933;47.226;15.734;2022-10-23T05:34:45;96722.19;;;6.92;100.00
44255;BME280;29933;47.226;15.734;2022-10-23T05:37:13;96714.84;;;6.93;100.00
44255;BME280;29933;47.226;15.734;2022-10-23T05:39:40;96702.16;;;6.93;100.00
44255;BME280;29933;47.226;15.734;2022-10-23T05:42:06;96716.06;;;6.95;100.00
44255;BME280;29933;47.226;15.734;2022-10-23T05:44:31;96706.84;;;6.96;100.00
44255;BME280;29933;47.226;15.734;2022-10-23T05:46:57;96708.41;;;6.97;100.00
44255;BME280;29933;47.226;15.734;2022-10-23T05:49:24;96713.88;;;7.01;100.00
44255;BME280;29933;47.226;15.734;2022-10-23T05:51:50;96723.97;;;7.04;100.00
44255;BME280;29933;47.226;15.734;2022-10-23T05:54:16;96728.59;;;7.04;100.00
44255;BME280;29933;47.226;15.734;2022-10-23T05:56:42;96738.63;;;7.03;100.00
44255;BME280;29933;47.226;15.734;2022-10-23T05:59:09;96729.28;;;7.01;100.00
44255;BME280;29933;47.226;15.734;2022-10-23T06:01:35;96733.13;;;7.00;100.00
44255;BME280;29933;47.226;15.734;2022-10-23T06:04:03;96732.34;;;6.99;100.00
44255;BME280;29933;47.226;15.734;2022-10-23T06:06:29;96735.84;;;7.00;100.00
44255;BME280;29933;47.226;15.734;2022-10-23T06:08:55;96745.06;;;6.99;100.00
44255;BME280;29933;47.226;15.734;2022-10-23T06:11:21;96738.47;;;6.96;100.00
44255;BME280;29933;47.226;15.734;2022-10-23T06:13:47;96735.84;;;7.00;100.00
44255;BME280;29933;47.226;15.734;2022-10-23T06:16:17;96744.03;;;7.03;100.00
44255;BME280;29933;47.226;15.734;2022-10-23T06:18:44;96739.38;;;7.04;100.00
44255;BME280;29933;47.226;15.734;2022-10-23T06:21:11;96735.56;;;7.05;100.00
44255;BME280;29933;47.226;15.734;2022-10-23T06:23:39;96737.19;;;7.09;100.00
44255;BME280;29933;47.226;15.734;2022-10-23T06:26:07;96738.75;;;7.10;100.00
44255;BME280;29933;47.226;15.734;2022-10-23T06:28:33;96739.19;;;7.12;100.00
44255;BME280;29933;47.226;15.734;2022-10-23T06:31:06;96746.56;;;7.16;100.00
44255;BME280;29933;47.226;15.734;2022-10-23T06:33:33;96752.03;;;7.19;100.00
44255;BME280;29933;47.226;15.734;2022-10-23T06:35:59;96755.94;;;7.22;100.00
44255;BME280;29933;47.226;15.734;2022-10-23T06:38:25;96755.25;;;7.25;100.00
44255;BME280;29933;47.226;15.734;2022-10-23T06:40:55;96753.00;;;7.27;100.00
44255;BME280;29933;47.226;15.734;2022-10-23T06:43:21;96746.88;;;7.30;100.00
44255;BME280;29933;47.226;15.734;2022-10-23T06:45:48;96751.50;;;7.29;100.00
44255;BME280;29933;47.226;15.734;2022-10-23T06:48:14;96751.84;;;7.28;100.00
44255;BME280;29933;47.226;15.734;2022-10-23T06:50:41;96747.63;;;7.30;100.00
44255;BME280;29933;47.226;15.734;2022-10-23T06:53:07;96742.22;;;7.30;100.00
44255;BME280;29933;47.226;15.734;2022-10-23T06:55:32;96741.09;;;7.32;100.00
44255;BME280;29933;47.226;15.734;2022-10-23T06:57:58;96753.91;;;7.35;100.00
44255;BME280;29933;47.226;15.734;2022-10-23T07:00:24;96762.09;;;7.38;100.00
44255;BME280;29933;47.226;15.734;2022-10-23T07:02:51;96761.00;;;7.43;100.00
44255;BME280;29933;47.226;15.734;2022-10-23T07:05:18;96769.63;;;7.49;100.00
44255;BME280;29933;47.226;15.734;2022-10-23T07:07:44;96771.25;;;7.53;100.00
44255;BME280;29933;47.226;15.734;2022-10-23T07:10:10;96780.97;;;7.58;100.00
44255;BME280;29933;47.226;15.734;2022-10-23T07:12:36;96778.72;;;7.60;100.00
44255;BME280;29933;47.226;15.734;2022-10-23T07:15:02;96774.16;;;7.64;100.00
44255;BME280;29933;47.226;15.734;2022-10-23T07:17:29;96765.63;;;7.62;100.00
44255;BME280;29933;47.226;15.734;2022-10-23T07:19:54;96775.84;;;7.72;100.00
44255;BME280;29933;47.226;15.734;2022-10-23T07:22:22;96767.16;;;7.83;100.00
44255;BME280;29933;47.226;15.734;2022-10-23T07:24:48;96767.00;;;7.95;100.00
44255;BME280;29933;47.226;15.734;2022-10-23T07:27:13;96762.97;;;8.08;100.00
44255;BME280;29933;47.226;15.734;2022-10-23T07:29:39;96765.50;;;8.21;100.00
44255;BME280;29933;47.226;15.734;2022-10-23T07:32:06;96768.44;;;8.58;100.00
44255;BME280;29933;47.226;15.734;2022-10-23T07:34:33;96774.81;;;9.27;100.00
44255;BME280;29933;47.226;15.734;2022-10-23T07:37:01;96771.63;;;9.86;100.00
44255;BME280;29933;47.226;15.734;2022-10-23T07:39:27;96780.00;;;9.73;100.00
44255;BME280;29933;47.226;15.734;2022-10-23T07:41:53;96776.44;;;9.35;100.00
44255;BME280;29933;47.226;15.734;2022-10-23T07:44:19;96773.81;;;9.08;100.00
44255;BME280;29933;47.226;15.734;2022-10-23T07:46:45;96759.75;;;8.99;100.00
44255;BME280;29933;47.226;15.734;2022-10-23T07:49:10;96762.81;;;8.98;100.00
44255;BME280;29933;47.226;15.734;2022-10-23T07:51:36;96759.50;;;9.08;100.00
44255;BME280;29933;47.226;15.734;2022-10-23T07:54:02;96750.00;;;9.25;100.00
44255;BME280;29933;47.226;15.734;2022-10-23T07:56:28;96745.91;;;9.38;100.00
44255;BME280;29933;47.226;15.734;2022-10-23T07:58:55;96749.19;;;9.55;100.00
44255;BME280;29933;47.226;15.734;2022-10-23T08:01:26;96755.56;;;9.70;100.00
44255;BME280;29933;47.226;15.734;2022-10-23T08:03:54;96747.53;;;9.81;100.00
44255;BME280;29933;47.226;15.734;2022-10-23T08:06:20;96748.09;;;9.97;100.00
44255;BME280;29933;47.226;15.734;2022-10-23T08:08:46;96741.63;;;10.13;100.00
44255;BME280;29933;47.226;15.734;2022-10-23T08:11:13;96739.78;;;10.24;100.00
44255;BME280;29933;47.226;15.734;2022-10-23T08:13:40;96740.19;;;10.26;100.00
44255;BME280;29933;47.226;15.734;2022-10-23T08:16:06;96727.75;;;10.25;100.00
44255;BME280;29933;47.226;15.734;2022-10-23T08:18:32;96736.31;;;10.27;100.00
44255;BME280;29933;47.226;15.734;2022-10-23T08:21:01;96735.22;;;10.32;100.00
44255;BME280;29933;47.226;15.734;2022-10-23T08:23:27;96734.09;;;10.36;100.00
44255;BME280;29933;47.226;15.734;2022-10-23T08:25:59;96727.22;;;10.50;100.00
44255;BME280;29933;47.226;15.734;2022-10-23T08:28:27;96724.97;;;10.63;100.00
44255;BME280;29933;47.226;15.734;2022-10-23T08:30:54;96719.59;;;10.74;100.00
44255;BME280;29933;47.226;15.734;2022-10-23T08:33:20;96722.72;;;10.76;100.00
44255;BME280;29933;47.226;15.734;2022-10-23T08:35:46;96724.31;;;10.84;100.00
44255;BME280;29933;47.226;15.734;2022-10-23T08:38:12;96720.16;;;11.05;100.00
44255;BME280;29933;47.226;15.734;2022-10-23T08:40:44;96718.69;;;11.22;100.00
44255;BME280;29933;47.226;15.734;2022-10-23T08:43:42;96722.25;;;11.37;100.00
44255;BME280;29933;47.226;15.734;2022-10-23T08:46:16;96728.13;;;11.53;100.00
44255;BME280;29933;47.226;15.734;2022-10-23T08:48:50;96714.56;;;11.67;100.00
44255;BME280;29933;47.226;15.734;2022-10-23T08:52:01;96722.75;;;11.78;100.00
44255;BME280;29933;47.226;15.734;2022-10-23T08:57:50;96718.16;;;12.04;100.00
44255;BME280;29933;47.226;15.734;2022-10-23T09:00:18;96722.03;;;12.07;100.00
44255;BME280;29933;47.226;15.734;2022-10-23T09:02:50;96718.94;;;12.08;100.00
44255;BME280;29933;47.226;15.734;2022-10-23T09:11:40;96724.75;;;12.18;100.00
44255;BME280;29933;47.226;15.734;2022-10-23T09:15:26;96731.00;;;12.25;100.00
44255;BME280;29933;47.226;15.734;2022-10-23T09:17:32;96725.53;;;12.36;100.00
44255;BME280;29933;47.226;15.734;2022-10-23T09:20:21;96725.94;;;12.49;100.00
44255;BME280;29933;47.226;15.734;2022-10-23T09:22:56;96731.75;;;12.51;100.00
44255;BME280;29933;47.226;15.734;2022-10-23T09:25:29;96734.88;;;12.60;100.00
44255;BME280;29933;47.226;15.734;2022-10-23T09:28:00;96734.47;;;12.66;100.00
44255;BME280;29933;47.226;15.734;2022-10-23T09:30:49;96728.63;;;12.82;100.00
44255;BME280;29933;47.226;15.734;2022-10-23T09:33:52;96731.72;;;12.91;100.00
44255;BME280;29933;47.226;15.734;2022-10-23T09:36:26;96727.78;;;13.03;100.00
44255;BME280;29933;47.226;15.734;2022-10-23T09:38:58;96727.72;;;13.21;100.00
44255;BME280;29933;47.226;15.734;2022-10-23T09:41:42;96721.44;;;13.42;100.00
44255;BME280;29933;47.226;15.734;2022-10-23T09:44:23;96724.00;;;13.74;100.00
44255;BME280;29933;47.226;15.734;2022-10-23T09:47:00;96721.03;;;14.14;100.00
44255;BME280;29933;47.226;15.734;2022-10-23T09:49:45;96718.94;;;14.33;100.00
44255;BME280;29933;47.226;15.734;2022-10-23T09:54:48;96717.88;;;14.61;100.00
44255;BME280;29933;47.226;15.734;2022-10-23T09:57:41;96718.66;;;15.03;100.00
44255;BME280;29933;47.226;15.734;2022-10-23T10:00:26;96706.16;;;15.37;100.00
44255;BME280;29933;47.226;15.734;2022-10-23T10:02:58;96707.09;;;15.58;100.00
44255;BME280;29933;47.226;15.734;2022-10-23T10:05:32;96698.84;;;15.89;100.00
44255;BME280;29933;47.226;15.734;2022-10-23T10:08:21;96698.22;;;16.05;100.00
44255;BME280;29933;47.226;15.734;2022-10-23T10:14:22;96688.66;;;16.40;100.00
44255;BME280;29933;47.226;15.734;2022-10-23T10:17:01;96687.00;;;16.46;100.00
44255;BME280;29933;47.226;15.734;2022-10-23T10:26:06;96677.28;;;16.86;100.00
44255;BME280;29933;47.226;15.734;2022-10-23T10:32:29;96669.09;;;17.06;100.00
44255;BME280;29933;47.226;15.734;2022-10-23T10:38:05;96667.75;;;17.14;100.00
44255;BME280;29933;47.226;15.734;2022-10-23T10:46:30;96656.84;;;17.10;100.00
44255;BME280;29933;47.226;15.734;2022-10-23T10:49:47;96659.72;;;17.03;100.00
44255;BME280;29933;47.226;15.734;2022-10-23T10:52:21;96653.19;;;16.97;100.00
44255;BME280;29933;47.226;15.734;2022-10-23T10:55:39;96635.94;;;16.76;100.00
44255;BME280;29933;47.226;15.734;2022-10-23T11:07:00;96632.38;;;16.56;100.00
44255;BME280;29933;47.226;15.734;2022-10-23T11:09:39;96631.84;;;16.64;100.00
44255;BME280;29933;47.226;15.734;2022-10-23T11:12:06;96624.41;;;16.65;100.00
44255;BME280;29933;47.226;15.734;2022-10-23T11:14:33;96625.59;;;16.64;100.00
44255;BME280;29933;47.226;15.734;2022-10-23T11:17:23;96624.72;;;16.67;100.00
44255;BME280;29933;47.226;15.734;2022-10-23T11:20:36;96621.50;;;16.72;100.00
44255;BME280;29933;47.226;15.734;2022-10-23T11:27:33;96606.53;;;16.97;100.00
44255;BME280;29933;47.226;15.734;2022-10-23T11:36:39;96584.88;;;17.03;100.00
44255;BME280;29933;47.226;15.734;2022-10-23T11:39:32;96588.91;;;16.98;100.00
44255;BME280;29933;47.226;15.734;2022-10-23T11:44:49;96584.34;;;16.91;100.00
44255;BME280;29933;47.226;15.734;2022-10-23T11:47:41;96585.94;;;16.89;100.00
44255;BME280;29933;47.226;15.734;2022-10-23T11:52:55;96583.31;;;16.81;100.00
44255;BME280;29933;47.226;15.734;2022-10-23T11:55:31;96575.59;;;16.76;100.00
44255;BME280;29933;47.226;15.734;2022-10-23T12:00:38;96575.59;;;16.76;100.00
44255;BME280;29933;47.226;15.734;2022-10-23T12:03:19;96581.34;;;16.82;100.00
44255;BME280;29933;47.226;15.734;2022-10-23T12:05:53;96578.53;;;16.86;100.00
44255;BME280;29933;47.226;15.734;2022-10-23T12:31:38;96556.22;;;17.24;100.00
44255;BME280;29933;47.226;15.734;2022-10-23T12:38:53;96523.28;;;17.40;100.00
44255;BME280;29933;47.226;15.734;2022-10-23T12:41:28;96522.56;;;17.20;100.00
44255;BME280;29933;47.226;15.734;2022-10-23T12:43:58;96512.16;;;16.94;100.00
44255;BME280;29933;47.226;15.734;2022-10-23T12:46:47;96522.13;;;17.05;100.00
44255;BME280;29933;47.226;15.734;2022-10-23T12:49:26;96516.81;;;17.14;100.00
44255;BME280;29933;47.226;15.734;2022-10-23T12:52:03;96513.13;;;17.21;100.00
44255;BME280;29933;47.226;15.734;2022-10-23T12:54:37;96489.91;;;17.25;100.00
44255;BME280;29933;47.226;15.734;2022-10-23T12:57:25;96483.91;;;17.47;100.00
44255;BME280;29933;47.226;15.734;2022-10-23T13:00:00;96479.69;;;17.59;100.00
44255;BME280;29933;47.226;15.734;2022-10-23T13:02:30;96484.97;;;17.83;100.00
44255;BME280;29933;47.226;15.734;2022-10-23T13:05:02;96490.13;;;17.97;100.00
44255;BME280;29933;47.226;15.734;2022-10-23T13:07:36;96485.50;;;17.94;100.00
44255;BME280;29933;47.226;15.734;2022-10-23T13:10:06;96485.91;;;17.92;100.00
44255;BME280;29933;47.226;15.734;2022-10-23T13:12:38;96478.78;;;17.78;100.00
44255;BME280;29933;47.226;15.734;2022-10-23T13:17:40;96481.88;;;17.80;100.00
44255;BME280;29933;47.226;15.734;2022-10-23T13:20:29;96479.91;;;17.81;100.00
44255;BME280;29933;47.226;15.734;2022-10-23T13:23:18;96483.63;;;17.74;100.00
44255;BME280;29933;47.226;15.734;2022-10-23T13:29:01;96472.63;;;17.74;100.00
44255;BME280;29933;47.226;15.734;2022-10-23T13:31:32;96473.50;;;17.71;100.00
44255;BME280;29933;47.226;15.734;2022-10-23T13:36:31;96483.13;;;17.63;100.00
44255;BME280;29933;47.226;15.734;2022-10-23T13:41:38;96460.41;;;17.29;100.00
44255;BME280;29933;47.226;15.734;2022-10-23T13:44:05;96451.84;;;17.27;100.00
44255;BME280;29933;47.226;15.734;2022-10-23T13:46:36;96454.16;;;17.29;100.00
44255;BME280;29933;47.226;15.734;2022-10-23T13:49:02;96455.69;;;17.30;100.00
44255;BME280;29933;47.226;15.734;2022-10-23T13:51:29;96461.59;;;17.28;100.00
44255;BME280;29933;47.226;15.734;2022-10-23T13:53:58;96468.88;;;17.19;100.00
44255;BME280;29933;47.226;15.734;2022-10-23T13:56:26;96463.56;;;17.11;100.00
44255;BME280;29933;47.226;15.734;2022-10-23T13:58:52;96465.53;;;17.11;100.00
44255;BME280;29933;47.226;15.734;2022-10-23T14:01:23;96473.34;;;17.12;100.00
44255;BME280;29933;47.226;15.734;2022-10-23T14:03:51;96459.28;;;17.10;100.00
44255;BME280;29933;47.226;15.734;2022-10-23T14:06:17;96459.88;;;17.18;100.00
44255;BME280;29933;47.226;15.734;2022-10-23T14:08:43;96458.94;;;17.25;100.00
44255;BME280;29933;47.226;15.734;2022-10-23T14:11:10;96455.25;;;17.31;100.00
44255;BME280;29933;47.226;15.734;2022-10-23T14:13:37;96467.34;;;17.34;100.00
44255;BME280;29933;47.226;15.734;2022-10-23T14:16:03;96463.13;;;17.29;100.00
44255;BME280;29933;47.226;15.734;2022-10-23T14:18:29;96462.38;;;17.29;100.00
44255;BME280;29933;47.226;15.734;2022-10-23T14:21:12;96462.03;;;17.27;100.00
44255;BME280;29933;47.226;15.734;2022-10-23T14:23:39;96451.13;;;17.23;100.00
44255;BME280;29933;47.226;15.734;2022-10-23T14:26:11;96447.94;;;17.25;100.00
44255;BME280;29933;47.226;15.734;2022-10-23T14:28:39;96446.22;;;17.31;100.00
44255;BME280;29933;47.226;15.734;2022-10-23T14:31:09;96449.69;;;17.35;100.00
44255;BME280;29933;47.226;15.734;2022-10-23T14:33:37;96452.50;;;17.31;100.00
44255;BME280;29933;47.226;15.734;2022-10-23T14:36:03;96466.03;;;17.22;100.00
44255;BME280;29933;47.226;15.734;2022-10-23T14:38:33;96465.22;;;17.09;100.00
44255;BME280;29933;47.226;15.734;2022-10-23T14:41:20;96463.88;;;16.97;100.00
44255;BME280;29933;47.226;15.734;2022-10-23T14:44:10;96456.56;;;16.90;100.00
44255;BME280;29933;47.226;15.734;2022-10-23T14:47:00;96462.81;;;16.74;100.00
44255;BME280;29933;47.226;15.734;2022-10-23T14:49:29;96458.84;;;16.59;100.00
44255;BME280;29933;47.226;15.734;2022-10-23T14:51:58;96457.78;;;16.52;100.00
44255;BME280;29933;47.226;15.734;2022-10-23T14:54:44;96468.31;;;16.54;100.00
44255;BME280;29933;47.226;15.734;2022-10-23T14:57:13;96457.44;;;16.50;100.00
44255;BME280;29933;47.226;15.734;2022-10-23T14:59:42;96458.75;;;16.42;100.00
44255;BME280;29933;47.226;15.734;2022-10-23T15:02:10;96457.72;;;16.36;100.00
44255;BME280;29933;47.226;15.734;2022-10-23T15:04:39;96462.56;;;16.28;100.00